Time;durP1;ratioP1;P1;durP2;ratioP2;P2;SDS_P1;SDS_P2;PMS_P1;PMS_P2;Temp;Humidity;BMP_temperature;BMP_pressure;BME280_temperature;BME280_humidity;BME280_pressure;Samples;Min_cycle;Max_cycle;Signal;HPM_P1;HPM_P2
2022/05/17 00:00:33;;;;;;;3.67;1.00;;;19.00;53.00;;;;;;2285541;55;20971;-74
2022/05/17 00:02:59;;;;;;;3.17;1.20;;;19.00;53.00;;;;;;2296775;55;20961;-73
2022/05/17 00:05:27;;;;;;;2.50;0.90;;;19.00;53.10;;;;;;2291070;55;21033;-71
2022/05/17 00:07:53;;;;;;;2.85;1.20;;;18.90;53.10;;;;;;2285491;55;21398;-74
2022/05/17 00:10:21;;;;;;;2.58;1.10;;;19.00;53.20;;;;;;2284670;55;20951;-75
2022/05/17 00:12:49;;;;;;;2.03;1.00;;;18.90;53.10;;;;;;2285522;55;20995;-74
2022/05/17 00:15:15;;;;;;;2.22;1.10;;;18.90;53.10;;;;;;2368857;54;21438;-75
2022/05/17 00:17:41;;;;;;;2.20;0.85;;;18.90;53.10;;;;;;2285757;55;20999;-74
2022/05/17 00:20:11;;;;;;;2.83;1.10;;;18.90;53.20;;;;;;2285901;55;20952;-75
2022/05/17 00:22:37;;;;;;;2.75;1.08;;;18.90;53.20;;;;;;2338233;54;20940;-74
2022/05/17 00:25:05;;;;;;;2.65;0.98;;;18.90;53.30;;;;;;2288542;55;20940;-74
2022/05/17 00:27:31;;;;;;;3.08;1.30;;;18.80;53.30;;;;;;2519115;54;21887;-78
2022/05/17 00:29:58;;;;;;;2.05;1.08;;;18.90;53.40;;;;;;2519291;54;20988;-75
2022/05/17 00:32:24;;;;;;;2.28;1.02;;;18.80;53.30;;;;;;2290501;55;21442;-74
2022/05/17 00:34:50;;;;;;;3.22;1.17;;;18.80;53.40;;;;;;2287436;55;21931;-74
2022/05/17 00:37:16;;;;;;;3.72;1.12;;;18.70;53.40;;;;;;2285732;55;21388;-75
2022/05/17 00:39:43;;;;;;;3.45;1.48;;;18.70;53.40;;;;;;2311160;55;20965;-73
2022/05/17 00:42:09;;;;;;;3.05;1.12;;;18.70;53.50;;;;;;2287259;55;21368;-74
2022/05/17 00:44:44;;;;;;;4.10;1.23;;;18.70;53.50;;;;;;2291227;55;20981;-73
2022/05/17 00:47:30;;;;;;;4.65;1.00;;;18.60;53.50;;;;;;2287420;55;21736;-73
2022/05/17 00:50:33;;;;;;;2.50;1.05;;;18.60;53.40;;;;;;2285612;55;21082;-76
2022/05/17 00:53:10;;;;;;;3.40;1.17;;;18.60;54.00;;;;;;2313025;54;21610;-73
2022/05/17 00:55:39;;;;;;;1.73;0.80;;;18.60;53.40;;;;;;2283478;55;21043;-74
2022/05/17 00:58:15;;;;;;;3.40;1.30;;;18.50;53.50;;;;;;2519185;54;20947;-74
2022/05/17 01:00:53;;;;;;;3.03;1.40;;;18.50;53.80;;;;;;2285105;55;20943;-73
2022/05/17 01:03:20;;;;;;;3.08;1.08;;;18.40;53.60;;;;;;2289484;55;21731;-72
2022/05/17 01:05:49;;;;;;;3.10;1.45;;;18.40;53.50;;;;;;2287169;55;21117;-73
2022/05/17 01:08:16;;;;;;;2.17;1.08;;;18.40;53.60;;;;;;2291536;55;20988;-76
2022/05/17 01:10:42;;;;;;;2.85;1.10;;;18.30;53.50;;;;;;2289749;55;20990;-73
2022/05/17 01:15:53;;;;;;;2.72;1.00;;;18.30;53.60;;;;;;2519841;54;21004;-74
2022/05/17 01:18:19;;;;;;;2.30;1.02;;;18.30;53.60;;;;;;2380505;54;21409;-73
2022/05/17 01:20:46;;;;;;;2.70;1.33;;;18.20;53.60;;;;;;2285893;55;20932;-74
2022/05/17 01:23:12;;;;;;;3.92;1.23;;;18.20;53.60;;;;;;2303292;54;20952;-74
2022/05/17 01:25:40;;;;;;;6.18;1.30;;;18.10;53.60;;;;;;2285599;55;20956;-73
2022/05/17 01:28:22;;;;;;;3.28;1.70;;;18.10;53.70;;;;;;2366993;54;21254;-74
2022/05/17 01:30:48;;;;;;;5.75;1.77;;;18.10;54.00;;;;;;2339933;54;21599;-74
2022/05/17 01:33:16;;;;;;;3.08;1.42;;;18.10;53.90;;;;;;2295468;54;20983;-76
2022/05/17 01:35:42;;;;;;;2.87;1.20;;;18.00;53.90;;;;;;2297338;54;20944;-75
2022/05/17 01:38:08;;;;;;;2.87;1.30;;;18.00;53.90;;;;;;2288556;55;21374;-73
2022/05/17 01:40:36;;;;;;;4.35;1.12;;;18.00;53.90;;;;;;2294734;55;20992;-73
2022/05/17 01:43:03;;;;;;;4.72;1.65;;;18.00;54.00;;;;;;2287440;55;20960;-75
2022/05/17 01:45:30;;;;;;;3.05;1.30;;;18.00;54.20;;;;;;2290629;55;21001;-74
2022/05/17 01:47:56;;;;;;;3.15;1.27;;;17.90;54.10;;;;;;2292901;55;21029;-74
2022/05/17 01:50:23;;;;;;;2.97;1.30;;;17.90;54.00;;;;;;2286582;55;21015;-74
2022/05/17 01:52:50;;;;;;;4.25;1.37;;;17.90;54.10;;;;;;2285940;55;21471;-74
2022/05/17 01:55:18;;;;;;;3.67;1.50;;;17.90;54.20;;;;;;2285877;55;20932;-73
2022/05/17 01:57:45;;;;;;;2.87;1.23;;;17.80;54.20;;;;;;2344736;54;20963;-75
2022/05/17 02:00:12;;;;;;;2.92;1.20;;;17.80;54.20;;;;;;2291395;55;21041;-74
2022/05/17 02:02:39;;;;;;;3.53;1.12;;;17.80;54.20;;;;;;2314777;55;21099;-75
2022/05/17 02:05:06;;;;;;;3.25;1.48;;;17.80;54.20;;;;;;2472044;54;21003;-74
2022/05/17 02:07:32;;;;;;;3.72;1.60;;;17.80;54.30;;;;;;2291111;55;21751;-73
2022/05/17 02:10:00;;;;;;;3.45;1.48;;;17.70;54.30;;;;;;2287331;55;20932;-74
2022/05/17 02:12:27;;;;;;;4.93;1.55;;;17.60;54.40;;;;;;2285801;55;20924;-76
2022/05/17 02:14:54;;;;;;;3.03;1.48;;;17.70;54.50;;;;;;2286373;55;22056;-74
2022/05/17 02:17:22;;;;;;;3.92;1.20;;;17.60;54.50;;;;;;2292050;55;21036;-74
2022/05/17 02:19:49;;;;;;;2.92;1.42;;;17.60;54.50;;;;;;2286707;55;21030;-74
2022/05/17 02:22:15;;;;;;;2.40;1.20;;;17.60;54.50;;;;;;2356059;54;20952;-72
2022/05/17 02:24:42;;;;;;;2.17;0.85;;;17.60;54.60;;;;;;2285801;55;21015;-73
2022/05/17 02:27:08;;;;;;;2.45;1.02;;;17.60;54.60;;;;;;2457846;54;20976;-74
2022/05/17 02:29:34;;;;;;;4.15;1.37;;;17.50;54.50;;;;;;2286108;55;20920;-75
2022/05/17 02:32:01;;;;;;;2.92;1.10;;;17.60;54.60;;;;;;2286142;55;20956;-73
2022/05/17 02:34:27;;;;;;;3.17;1.20;;;17.60;54.60;;;;;;2291914;55;20980;-73
2022/05/17 02:36:54;;;;;;;3.47;1.30;;;17.60;54.70;;;;;;2286928;55;21425;-73
2022/05/17 02:39:20;;;;;;;2.80;1.37;;;17.60;54.80;;;;;;2343695;54;20952;-74
2022/05/17 02:41:46;;;;;;;2.90;1.55;;;17.50;54.70;;;;;;2287532;55;21598;-75
2022/05/17 02:44:15;;;;;;;3.60;1.70;;;17.50;54.80;;;;;;2290625;55;21040;-73
2022/05/17 02:46:42;;;;;;;4.97;1.52;;;17.50;54.90;;;;;;2290337;55;20921;-75
2022/05/17 02:49:08;;;;;;;5.12;1.30;;;17.50;54.80;;;;;;2292111;55;21007;-73
2022/05/17 02:51:35;;;;;;;3.20;1.33;;;17.40;54.70;;;;;;2292014;55;21002;-72
2022/05/17 02:54:05;;;;;;;3.58;1.48;;;17.40;54.80;;;;;;2286562;55;21049;-73
2022/05/17 02:56:32;;;;;;;3.22;1.55;;;17.40;55.50;;;;;;2312513;55;21435;-73
2022/05/17 02:58:58;;;;;;;2.70;1.35;;;17.40;55.00;;;;;;2286112;55;20956;-74
2022/05/17 03:01:25;;;;;;;3.15;1.23;;;17.30;55.10;;;;;;2329041;54;20963;-73
2022/05/17 03:03:51;;;;;;;3.95;1.52;;;17.30;55.10;;;;;;2288219;55;20992;-74
2022/05/17 03:06:17;;;;;;;2.85;1.30;;;17.30;55.10;;;;;;2285719;55;21094;-74
2022/05/17 03:08:44;;;;;;;2.28;1.20;;;17.30;55.10;;;;;;2285827;55;20952;-73
2022/05/17 03:11:10;;;;;;;5.18;1.20;;;17.30;55.20;;;;;;2390741;54;20948;-73
2022/05/17 03:13:36;;;;;;;3.35;1.52;;;17.30;55.20;;;;;;2286118;55;20996;-75
2022/05/17 03:16:04;;;;;;;2.22;1.10;;;17.30;55.20;;;;;;2390535;54;21045;-74
2022/05/17 03:18:33;;;;;;;2.65;1.30;;;17.20;55.20;;;;;;2296094;55;21479;-75
2022/05/17 03:20:59;;;;;;;3.80;1.50;;;17.20;55.10;;;;;;2280732;55;21040;-74
2022/05/17 03:23:26;;;;;;;3.20;1.40;;;17.20;55.10;;;;;;2288184;55;21043;-74
2022/05/17 03:25:53;;;;;;;2.75;1.27;;;17.20;55.10;;;;;;2387418;54;21039;-74
2022/05/17 03:28:19;;;;;;;2.47;1.23;;;17.20;55.10;;;;;;2286808;55;20964;-73
2022/05/17 03:30:48;;;;;;;2.53;1.27;;;17.20;55.10;;;;;;2286040;55;21000;-73
2022/05/17 03:33:15;;;;;;;2.55;1.02;;;17.10;55.10;;;;;;2288376;55;20951;-74
2022/05/17 03:35:41;;;;;;;2.80;1.20;;;17.10;55.20;;;;;;2300533;55;20966;-74
2022/05/17 03:38:08;;;;;;;3.00;1.27;;;17.10;55.20;;;;;;2292538;55;20964;-74
2022/05/17 03:40:34;;;;;;;3.10;1.30;;;17.10;55.20;;;;;;2285941;55;20960;-74
2022/05/17 03:43:00;;;;;;;2.58;1.15;;;17.00;55.20;;;;;;2285472;55;20960;-73
2022/05/17 03:45:27;;;;;;;2.60;1.20;;;17.00;55.30;;;;;;2293275;55;21028;-74
2022/05/17 03:47:54;;;;;;;2.78;1.15;;;17.00;55.40;;;;;;2486801;54;21032;-73
2022/05/17 03:50:20;;;;;;;2.37;1.00;;;17.00;55.50;;;;;;2285910;55;21063;-73
2022/05/17 03:52:47;;;;;;;3.12;1.15;;;17.00;55.60;;;;;;2285911;55;21889;-73
2022/05/17 03:55:13;;;;;;;3.33;1.20;;;17.00;55.60;;;;;;2411961;55;20969;-75
2022/05/17 03:57:40;;;;;;;3.97;1.33;;;17.00;55.70;;;;;;2287051;55;20932;-72
2022/05/17 04:00:10;;;;;;;2.50;1.02;;;17.00;55.70;;;;;;2487023;54;20974;-73
2022/05/17 04:02:37;;;;;;;2.97;1.17;;;17.00;55.90;;;;;;2394256;54;21011;-76
2022/05/17 04:05:05;;;;;;;3.83;1.20;;;17.00;55.90;;;;;;2285756;55;21443;-75
2022/05/17 04:07:31;;;;;;;2.30;1.05;;;17.00;56.00;;;;;;2285417;55;20979;-74
2022/05/17 04:09:57;;;;;;;3.55;1.20;;;17.00;56.00;;;;;;2346960;54;20992;-74
2022/05/17 04:12:24;;;;;;;3.22;1.20;;;17.00;56.00;;;;;;2289869;55;21004;-75
2022/05/17 04:14:53;;;;;;;2.90;1.10;;;17.00;56.00;;;;;;2325844;54;20999;-76
2022/05/17 04:17:19;;;;;;;3.30;1.30;;;17.00;56.10;;;;;;2286874;55;21040;-75
2022/05/17 04:19:45;;;;;;;2.62;1.00;;;17.00;56.10;;;;;;2287240;55;21155;-73
2022/05/17 04:22:12;;;;;;;2.62;1.00;;;17.00;56.10;;;;;;2292156;55;21742;-75
2022/05/17 04:24:41;;;;;;;2.25;1.05;;;17.00;56.10;;;;;;2285878;55;21306;-75
2022/05/17 04:27:09;;;;;;;2.83;1.10;;;17.10;56.30;;;;;;2471866;54;21036;-75
2022/05/17 04:29:36;;;;;;;2.53;1.08;;;17.10;56.40;;;;;;2330878;54;20952;-74
2022/05/17 04:32:02;;;;;;;3.75;0.90;;;17.10;56.40;;;;;;2288908;55;20976;-73
2022/05/17 04:34:29;;;;;;;2.72;1.08;;;17.10;56.50;;;;;;2397382;54;20972;-73
2022/05/17 04:36:56;;;;;;;2.53;1.00;;;17.10;56.60;;;;;;2289786;55;20982;-73
2022/05/17 04:39:24;;;;;;;3.12;1.20;;;17.20;56.70;;;;;;2292860;55;20953;-76
2022/05/17 04:41:51;;;;;;;3.05;1.30;;;17.20;56.80;;;;;;2275757;55;21040;-76
2022/05/17 04:44:20;;;;;;;3.15;1.02;;;17.20;56.80;;;;;;2347551;54;21052;-78
2022/05/17 04:46:47;;;;;;;3.35;1.05;;;17.30;57.10;;;;;;2285756;55;20932;-77
2022/05/17 04:49:14;;;;;;;2.60;1.10;;;17.30;57.10;;;;;;2291878;55;20949;-74
2022/05/17 04:51:41;;;;;;;3.22;1.20;;;17.40;57.20;;;;;;2286463;55;20960;-74
2022/05/17 04:54:07;;;;;;;3.10;1.20;;;17.40;57.20;;;;;;2377974;54;20952;-74
2022/05/17 04:56:34;;;;;;;5.50;1.25;;;17.50;57.40;;;;;;2288930;55;21454;-74
2022/05/17 04:59:02;;;;;;;2.42;1.10;;;17.50;57.40;;;;;;2300679;55;20973;-77
2022/05/17 05:01:29;;;;;;;3.83;1.10;;;17.60;57.60;;;;;;2286111;55;21024;-75
2022/05/17 05:03:55;;;;;;;2.67;1.00;;;17.60;57.60;;;;;;2285641;55;20928;-73
2022/05/17 05:06:22;;;;;;;3.08;1.17;;;17.70;57.70;;;;;;2285020;55;21015;-73
2022/05/17 05:08:48;;;;;;;2.97;0.90;;;17.80;57.90;;;;;;2285296;55;20983;-75
2022/05/17 05:11:14;;;;;;;4.00;1.20;;;17.80;58.00;;;;;;2288054;55;21612;-74
2022/05/17 05:13:41;;;;;;;2.75;1.02;;;17.90;58.10;;;;;;2291399;55;21009;-76
2022/05/17 05:16:09;;;;;;;2.67;0.93;;;18.00;58.20;;;;;;2291421;55;21016;-74
2022/05/17 05:18:38;;;;;;;3.33;1.10;;;18.10;58.40;;;;;;2376512;54;21295;-74
2022/05/17 05:21:05;;;;;;;2.45;1.10;;;18.20;58.50;;;;;;2284511;55;20987;-74
2022/05/17 05:23:31;;;;;;;2.08;0.90;;;18.30;58.60;;;;;;2457518;55;20972;-74
2022/05/17 05:25:59;;;;;;;2.83;0.90;;;18.40;58.60;;;;;;2290367;55;20973;-75
2022/05/17 05:28:26;;;;;;;3.85;1.23;;;18.50;58.70;;;;;;2294052;55;21016;-75
2022/05/17 05:30:54;;;;;;;2.33;1.08;;;18.60;58.70;;;;;;2286612;55;21003;-75
2022/05/17 05:33:20;;;;;;;2.50;1.20;;;18.70;58.80;;;;;;2519662;54;21444;-74
2022/05/17 05:35:46;;;;;;;2.12;1.10;;;18.80;58.80;;;;;;2302458;55;21013;-74
2022/05/17 05:38:13;;;;;;;3.10;1.20;;;18.90;58.90;;;;;;2287166;55;20964;-75
2022/05/17 05:40:41;;;;;;;4.28;1.37;;;19.00;58.90;;;;;;2289437;55;21028;-77
2022/05/17 05:43:10;;;;;;;3.65;1.37;;;19.20;59.00;;;;;;2287729;55;21055;-73
2022/05/17 05:45:36;;;;;;;4.07;1.70;;;19.30;59.10;;;;;;2285635;55;20996;-73
2022/05/17 05:48:03;;;;;;;3.08;1.40;;;19.40;59.00;;;;;;2296232;55;21781;-74
2022/05/17 05:50:29;;;;;;;4.57;1.10;;;19.50;58.90;;;;;;2286018;55;21082;-74
2022/05/17 05:53:05;;;;;;;2.42;1.00;;;19.60;58.80;;;;;;2286135;55;21836;-77
2022/05/17 05:55:32;;;;;;;3.80;1.40;;;19.70;58.90;;;;;;2285364;55;20959;-74
2022/05/17 05:57:58;;;;;;;3.28;1.40;;;19.80;58.80;;;;;;2285863;55;21431;-74
2022/05/17 06:00:25;;;;;;;3.40;1.60;;;19.80;58.70;;;;;;2297327;55;20949;-75
2022/05/17 06:02:51;;;;;;;2.37;1.20;;;19.90;58.60;;;;;;2286013;55;20948;-78
2022/05/17 06:05:19;;;;;;;3.97;1.60;;;20.00;58.60;;;;;;2285519;55;20951;-74
2022/05/17 06:07:46;;;;;;;5.05;1.85;;;20.10;58.50;;;;;;2287645;55;20940;-75
2022/05/17 06:10:12;;;;;;;3.00;1.30;;;20.20;58.50;;;;;;2288833;55;21044;-78
2022/05/17 06:12:39;;;;;;;4.53;1.45;;;20.30;58.40;;;;;;2285913;55;20932;-74
2022/05/17 06:15:06;;;;;;;4.55;1.45;;;20.30;58.40;;;;;;2285534;55;20999;-74
2022/05/17 06:17:32;;;;;;;6.18;1.40;;;20.40;58.50;;;;;;2354071;54;21019;-74
2022/05/17 06:19:59;;;;;;;2.85;1.60;;;20.50;58.50;;;;;;2289795;55;21779;-74
2022/05/17 06:22:26;;;;;;;2.40;1.20;;;20.50;58.50;;;;;;2287322;55;20972;-74
2022/05/17 06:24:52;;;;;;;3.15;1.27;;;20.60;58.40;;;;;;2285629;55;21468;-74
2022/05/17 06:27:22;;;;;;;2.65;1.23;;;20.70;58.40;;;;;;2290801;55;21009;-77
2022/05/17 06:29:49;;;;;;;3.65;1.65;;;20.80;58.50;;;;;;2286549;55;20943;-74
2022/05/17 06:32:15;;;;;;;4.45;1.75;;;20.90;58.60;;;;;;2327786;54;21023;-74
2022/05/17 06:34:42;;;;;;;4.12;1.65;;;21.00;58.70;;;;;;2285964;55;21472;-77
2022/05/17 06:37:09;;;;;;;3.55;1.40;;;21.10;58.60;;;;;;2296472;54;21420;-77
2022/05/17 06:39:35;;;;;;;3.12;1.70;;;21.20;58.50;;;;;;2290884;55;21017;-74
2022/05/17 06:42:02;;;;;;;2.85;1.52;;;21.20;58.40;;;;;;2287654;55;20984;-74
2022/05/17 06:44:29;;;;;;;7.97;1.70;;;21.30;58.40;;;;;;2364772;54;21035;-74
2022/05/17 06:46:58;;;;;;;3.58;1.50;;;21.40;58.40;;;;;;2285903;55;20960;-76
2022/05/17 06:49:28;;;;;;;5.32;1.67;;;21.50;58.40;;;;;;2290478;55;21007;-74
2022/05/17 06:51:57;;;;;;;4.32;1.50;;;21.60;58.50;;;;;;2285621;55;20932;-75
2022/05/17 06:54:24;;;;;;;4.12;1.70;;;21.70;58.50;;;;;;2286170;55;20962;-73
2022/05/17 06:56:50;;;;;;;3.55;1.80;;;21.80;58.40;;;;;;2271222;55;21484;-74
2022/05/17 06:59:18;;;;;;;5.25;1.80;;;21.90;58.30;;;;;;2519600;54;20951;-73
2022/05/17 07:01:44;;;;;;;3.30;1.60;;;22.00;58.20;;;;;;2290317;55;20980;-75
2022/05/17 07:04:13;;;;;;;4.68;2.17;;;22.10;58.20;;;;;;2292698;55;21020;-74
2022/05/17 07:06:40;;;;;;;4.65;1.70;;;22.20;58.20;;;;;;2285870;55;21391;-74
2022/05/17 07:09:12;;;;;;;6.00;2.95;;;22.30;58.30;;;;;;2285711;55;21016;-74
2022/05/17 07:14:23;;;;;;;4.15;1.37;;;22.60;58.70;;;;;;2286952;55;20976;-74
2022/05/17 07:16:50;;;;;;;4.05;1.67;;;22.80;58.80;;;;;;2363291;54;21738;-73
2022/05/17 07:19:16;;;;;;;3.90;1.90;;;23.00;58.90;;;;;;2286564;55;21845;-73
2022/05/17 07:21:57;;;;;;;3.97;1.77;;;23.20;58.90;;;;;;2285860;55;21673;-75
2022/05/17 07:24:24;;;;;;;2.37;1.27;;;23.50;59.00;;;;;;2285313;55;20936;-73
2022/05/17 07:26:50;;;;;;;4.22;1.40;;;23.70;58.90;;;;;;2285308;55;20967;-72
2022/05/17 07:29:30;;;;;;;4.25;1.48;;;23.90;58.60;;;;;;2333976;54;21007;-74
2022/05/17 07:31:56;;;;;;;3.20;1.50;;;24.20;58.40;;;;;;2291451;55;21033;-75
2022/05/17 07:34:24;;;;;;;3.72;1.60;;;24.40;58.10;;;;;;2287336;55;21030;-73
2022/05/17 07:36:50;;;;;;;3.87;1.30;;;24.50;57.50;;;;;;2284623;55;20944;-73
2022/05/17 07:39:17;;;;;;;4.37;1.58;;;24.70;57.30;;;;;;2288985;55;21006;-74
2022/05/17 07:41:44;;;;;;;5.07;2.10;;;24.80;57.10;;;;;;2295205;55;20929;-74
2022/05/17 07:44:11;;;;;;;3.92;1.42;;;24.90;56.90;;;;;;2280661;55;20963;-73
2022/05/17 07:46:37;;;;;;;5.47;1.33;;;25.00;56.70;;;;;;2284990;55;20960;-72
2022/05/17 07:49:06;;;;;;;5.85;1.75;;;25.10;56.50;;;;;;2322825;55;20984;-76
2022/05/17 07:51:35;;;;;;;3.83;1.50;;;25.20;56.50;;;;;;2287945;55;20932;-73
2022/05/17 07:54:01;;;;;;;4.00;1.75;;;25.30;56.20;;;;;;2269146;55;20999;-74
2022/05/17 07:56:28;;;;;;;4.28;1.60;;;25.40;55.70;;;;;;2288073;55;21004;-73
2022/05/17 07:58:54;;;;;;;5.25;1.50;;;25.50;55.20;;;;;;2462281;54;21521;-73
2022/05/17 08:01:20;;;;;;;3.33;1.37;;;25.50;55.00;;;;;;2471668;54;21025;-73
2022/05/17 08:03:47;;;;;;;4.00;1.33;;;25.50;54.80;;;;;;2287263;55;21032;-73
2022/05/17 08:06:13;;;;;;;3.00;1.45;;;25.50;54.60;;;;;;2284516;55;21944;-75
2022/05/17 08:08:40;;;;;;;3.47;1.33;;;25.50;54.50;;;;;;2285268;55;20983;-73
2022/05/17 08:11:07;;;;;;;3.40;1.60;;;25.50;54.40;;;;;;2290054;55;21001;-73
2022/05/17 08:13:33;;;;;;;3.42;1.62;;;25.40;54.30;;;;;;2419690;54;21019;-73
2022/05/17 08:16:08;;;;;;;3.28;1.67;;;25.40;54.40;;;;;;2285245;55;20936;-73
2022/05/17 08:18:34;;;;;;;3.47;1.45;;;25.50;54.60;;;;;;2290750;55;21717;-73
2022/05/17 08:21:00;;;;;;;4.35;1.73;;;25.50;54.70;;;;;;2289061;55;21088;-75
2022/05/17 08:23:29;;;;;;;7.80;2.12;;;25.50;54.60;;;;;;2287423;55;21027;-76
2022/05/17 08:28:41;;;;;;;3.80;1.77;;;25.50;54.30;;;;;;2285739;55;21515;-73
2022/05/17 08:31:10;;;;;;;4.75;2.25;;;25.60;54.00;;;;;;2285358;55;20989;-73
2022/05/17 08:33:38;;;;;;;4.87;1.73;;;25.60;53.90;;;;;;2285505;55;20956;-73
2022/05/17 08:36:07;;;;;;;3.62;1.95;;;25.60;53.70;;;;;;2487491;54;20972;-74
2022/05/17 08:38:52;;;;;;;2.92;1.62;;;25.60;53.40;;;;;;2285926;55;21528;-73
2022/05/17 08:41:52;;;;;;;3.00;1.52;;;25.70;53.30;;;;;;2285394;55;20944;-73
2022/05/17 08:44:21;;;;;;;3.47;1.83;;;25.70;53.30;;;;;;2286997;55;21070;-76
2022/05/17 08:47:57;;;;;;;3.42;1.90;;;25.70;53.60;;;;;;2327977;55;21065;-74
2022/05/17 08:50:28;;;;;;;4.37;1.73;;;25.80;53.30;;;;;;2368208;54;21087;-75
2022/05/17 08:52:54;;;;;;;5.10;1.73;;;25.90;53.60;;;;;;2295206;55;20906;-73
2022/05/17 08:55:29;;;;;;;4.10;1.90;;;25.90;53.40;;;;;;2285000;55;20952;-73
2022/05/17 08:58:26;;;;;;;4.12;1.85;;;26.00;53.40;;;;;;2284863;55;21002;-72
2022/05/17 09:01:06;;;;;;;4.30;1.95;;;26.10;53.20;;;;;;2450248;54;20920;-73
2022/05/17 09:05:05;;;;;;;2.47;1.37;;;26.10;53.30;;;;;;2288806;55;21023;-73
2022/05/17 09:07:48;;;;;;;5.93;1.80;;;26.30;53.10;;;;;;2285312;55;20991;-74
2022/05/17 09:11:55;;;;;;;3.95;1.85;;;26.40;53.00;;;;;;2343762;55;20968;-76
2022/05/17 09:14:30;;;;;;;6.85;1.77;;;26.50;53.00;;;;;;2288153;55;21032;-75
2022/05/17 09:17:04;;;;;;;3.65;1.83;;;26.50;52.60;;;;;;2286987;55;21027;-74
2022/05/17 09:19:30;;;;;;;4.10;2.05;;;26.60;52.50;;;;;;2325895;54;21754;-75
2022/05/17 09:22:00;;;;;;;3.10;1.80;;;26.60;52.60;;;;;;2297303;55;20946;-76
2022/05/17 09:24:34;;;;;;;4.70;1.80;;;26.70;52.50;;;;;;2278873;55;20969;-76
2022/05/17 09:27:24;;;;;;;4.10;2.00;;;26.70;52.10;;;;;;2286250;55;20964;-73
2022/05/17 09:29:53;;;;;;;3.50;1.80;;;26.80;52.10;;;;;;2286170;55;21869;-72
2022/05/17 09:32:36;;;;;;;4.07;1.55;;;26.80;52.10;;;;;;2406772;54;20997;-72
2022/05/17 09:35:09;;;;;;;4.10;1.60;;;26.90;52.10;;;;;;2283029;55;21044;-75
2022/05/17 09:37:44;;;;;;;3.50;1.98;;;26.90;51.80;;;;;;2286020;55;21106;-73
2022/05/17 09:40:22;;;;;;;3.25;1.73;;;27.00;51.60;;;;;;2283111;55;21024;-73
2022/05/17 09:43:52;;;;;;;4.50;2.00;;;27.00;51.80;;;;;;2440894;54;20952;-76
2022/05/17 09:46:31;;;;;;;3.17;1.87;;;27.10;51.60;;;;;;2288468;55;21844;-74
2022/05/17 09:53:02;;;;;;;3.25;1.70;;;27.20;51.00;;;;;;2352756;55;20972;-76
2022/05/17 09:55:30;;;;;;;3.80;1.85;;;27.30;50.90;;;;;;2499773;55;20976;-74
2022/05/17 09:58:00;;;;;;;4.30;1.87;;;27.30;51.20;;;;;;2506405;54;20952;-73
2022/05/17 10:01:11;;;;;;;4.30;1.90;;;27.40;51.00;;;;;;2294077;55;21009;-73
2022/05/17 10:03:39;;;;;;;3.15;1.80;;;27.50;50.60;;;;;;2285789;55;20955;-74
2022/05/17 10:06:07;;;;;;;3.85;2.00;;;27.50;50.60;;;;;;2518247;54;20995;-74
2022/05/17 10:08:39;;;;;;;4.43;1.80;;;27.60;50.50;;;;;;2286461;55;21104;-73
2022/05/17 10:11:23;;;;;;;4.32;1.70;;;27.60;50.10;;;;;;2290849;55;20937;-75
2022/05/17 10:14:52;;;;;;;3.17;1.80;;;27.70;50.10;;;;;;2285647;55;20959;-74
2022/05/17 10:17:51;;;;;;;2.90;1.55;;;27.80;50.00;;;;;;2285117;55;20904;-74
2022/05/17 10:20:26;;;;;;;3.22;1.80;;;27.80;49.70;;;;;;2288366;55;21094;-74
2022/05/17 10:23:05;;;;;;;4.82;1.58;;;27.90;49.90;;;;;;2291345;55;20936;-73
2022/05/17 10:25:46;;;;;;;2.85;1.50;;;28.00;49.40;;;;;;2519564;54;20985;-73
2022/05/17 10:28:47;;;;;;;3.65;1.70;;;28.10;49.60;;;;;;2522831;54;21016;-72
2022/05/17 10:31:26;;;;;;;4.10;1.80;;;28.20;49.40;;;;;;2286513;55;20931;-72
2022/05/17 10:35:28;;;;;;;3.33;2.00;;;28.30;49.60;;;;;;2292534;55;20905;-72
2022/05/17 10:38:20;;;;;;;2.92;1.50;;;28.40;49.10;;;;;;2286404;55;21007;-72
2022/05/17 10:40:50;;;;;;;3.12;1.40;;;28.50;49.20;;;;;;2295314;55;21022;-73
2022/05/17 10:43:59;;;;;;;2.60;1.48;;;28.50;48.80;;;;;;2284179;55;20972;-73
2022/05/17 10:46:33;;;;;;;4.03;1.52;;;28.60;48.20;;;;;;2280920;55;21476;-73
2022/05/17 10:49:17;;;;;;;3.10;1.45;;;28.70;48.20;;;;;;2394731;54;20977;-73
2022/05/17 10:58:36;;;;;;;4.03;1.77;;;28.80;48.20;;;;;;2516641;54;21832;-72
2022/05/17 11:02:07;;;;;;;3.35;1.00;;;28.80;48.20;;;;;;2349691;54;20932;-73
2022/05/17 11:09:14;;;;;;;2.50;1.33;;;29.20;47.90;;;;;;2290250;55;20940;-75
2022/05/17 11:12:10;;;;;;;2.90;1.23;;;29.20;47.40;;;;;;2287295;55;21040;-73
2022/05/17 11:14:50;;;;;;;2.45;1.20;;;29.40;47.00;;;;;;2285138;55;20976;-73
2022/05/17 11:17:34;;;;;;;2.47;1.30;;;29.50;47.10;;;;;;2284991;55;21834;-73
2022/05/17 11:23:53;;;;;;;4.62;1.52;;;29.60;46.50;;;;;;2286041;55;20955;-73
2022/05/17 11:27:56;;;;;;;4.03;1.23;;;29.80;46.90;;;;;;2418969;54;21048;-73
2022/05/17 11:30:30;;;;;;;;;;;29.90;46.30;;;;;;2289547;55;20952;-75
2022/05/17 11:34:15;;;;;;;2.85;1.25;;;29.90;46.50;;;;;;2446851;54;20124;-72
2022/05/17 11:36:42;;;;;;;1.95;1.00;;;29.90;45.20;;;;;;2270360;56;21024;-73
2022/05/17 11:39:58;;;;;;;2.08;1.00;;;30.00;45.50;;;;;;2285460;55;21004;-72
2022/05/17 11:42:35;;;;;;;2.78;1.33;;;30.00;44.40;;;;;;2285109;55;21031;-74
2022/05/17 11:45:21;;;;;;;3.83;1.55;;;30.00;44.20;;;;;;2285969;55;20992;-73
2022/05/17 11:47:55;;;;;;;2.33;1.00;;;30.00;43.50;;;;;;2286764;55;21028;-73
2022/05/17 11:50:52;;;;;;;4.43;1.25;;;29.90;44.20;;;;;;2285043;55;21019;-75
2022/05/17 11:53:56;;;;;;;2.80;1.10;;;30.00;43.70;;;;;;2314285;55;21028;-73
2022/05/17 11:56:40;;;;;;;2.10;0.80;;;30.00;43.20;;;;;;2325478;55;20980;-75
2022/05/17 12:00:41;;;;;;;2.55;0.98;;;30.00;42.80;;;;;;2285099;55;21385;-75
2022/05/17 12:03:20;;;;;;;2.95;1.10;;;30.00;43.40;;;;;;2294635;54;20960;-74
2022/05/17 12:06:07;;;;;;;2.72;1.00;;;30.10;42.50;;;;;;2346863;54;20983;-75
2022/05/17 12:08:36;;;;;;;3.30;1.05;;;30.10;42.60;;;;;;2285372;55;20950;-75
2022/05/17 12:11:57;;;;;;;2.80;1.00;;;30.10;42.80;;;;;;2285938;55;20964;-75
2022/05/17 12:14:32;;;;;;;2.55;0.82;;;30.10;42.10;;;;;;2485373;54;21064;-75
2022/05/17 12:17:07;;;;;;;2.70;1.00;;;30.10;42.60;;;;;;2320495;54;21324;-75
2022/05/17 12:20:03;;;;;;;3.80;0.95;;;30.20;42.80;;;;;;2269975;55;1346054;-75
2022/05/17 12:25:09;;;;;;;3.80;1.10;;;30.20;42.30;;;;;;2415430;54;20944;-75
2022/05/17 12:27:39;;;;;;;2.95;1.12;;;30.30;42.80;;;;;;2291245;55;20956;-75
2022/05/17 12:33:02;;;;;;;2.85;0.95;;;30.30;41.60;;;;;;2431892;54;20959;-75
2022/05/17 12:35:30;;;;;;;2.62;1.10;;;30.40;41.60;;;;;;2282809;55;21469;-75
2022/05/17 12:37:56;;;;;;;2.87;1.10;;;30.40;41.80;;;;;;2292394;55;21008;-74
2022/05/17 12:43:28;;;;;;;2.53;1.10;;;30.40;41.80;;;;;;2353543;54;20953;-75
2022/05/17 12:45:54;;;;;;;1.85;0.90;;;30.50;41.00;;;;;;2275164;55;20988;-75
2022/05/17 12:48:35;;;;;;;2.15;1.00;;;30.50;41.80;;;;;;2281563;55;21032;-74
2022/05/17 12:51:04;;;;;;;2.47;1.15;;;30.50;41.40;;;;;;2278718;55;20949;-76
2022/05/17 12:53:44;;;;;;;3.87;1.20;;;30.50;41.40;;;;;;2498856;54;20988;-75
2022/05/17 12:56:55;;;;;;;2.40;0.95;;;30.60;40.90;;;;;;2278920;55;20968;-75
2022/05/17 12:59:27;;;;;;;2.10;1.02;;;30.70;40.90;;;;;;2290404;55;21004;-75
2022/05/17 13:01:57;;;;;;;2.22;0.85;;;30.60;41.30;;;;;;2289751;55;21368;-76
2022/05/17 13:04:32;;;;;;;2.80;1.17;;;30.70;41.00;;;;;;2520734;54;21495;-75
2022/05/17 13:07:16;;;;;;;2.05;0.90;;;30.80;40.50;;;;;;2309842;54;21409;-76
2022/05/17 13:10:05;;;;;;;2.25;1.10;;;30.80;40.10;;;;;;2358936;54;21040;-75
2022/05/17 13:12:35;;;;;;;2.15;1.00;;;30.90;39.60;;;;;;2285741;55;21035;-76
2022/05/17 13:15:05;;;;;;;2.00;0.75;;;30.90;39.70;;;;;;2287790;55;20968;-74
2022/05/17 13:17:35;;;;;;;2.42;1.10;;;31.00;39.30;;;;;;2285099;55;21067;-75
2022/05/17 13:20:24;;;;;;;1.85;0.90;;;31.00;39.90;;;;;;2285071;55;21031;-75
2022/05/17 13:22:54;;;;;;;2.15;0.80;;;31.00;39.80;;;;;;2458827;54;21027;-75
2022/05/17 13:25:25;;;;;;;3.05;0.90;;;31.10;39.80;;;;;;2397501;54;20955;-75
2022/05/17 13:27:52;;;;;;;1.73;0.73;;;31.10;39.50;;;;;;2382281;54;20963;-75
2022/05/17 13:30:30;;;;;;;2.45;1.00;;;31.20;39.30;;;;;;2383937;54;21467;-74
2022/05/17 13:32:58;;;;;;;2.33;0.80;;;31.20;38.40;;;;;;2285726;55;20995;-74
2022/05/17 13:35:26;;;;;;;2.72;1.10;;;31.30;38.90;;;;;;2319449;54;21386;-75
2022/05/17 13:39:51;;;;;;;3.25;0.82;;;31.30;38.50;;;;;;2285728;55;20968;-74
2022/05/17 13:42:26;;;;;;;2.00;0.95;;;31.30;38.10;;;;;;2412377;54;21500;-75
2022/05/17 13:44:54;;;;;;;2.15;0.80;;;31.40;38.40;;;;;;2285511;55;21004;-75
2022/05/17 13:47:28;;;;;;;2.55;0.80;;;31.40;38.10;;;;;;2519054;54;20948;-75
2022/05/17 13:49:58;;;;;;;2.62;1.10;;;31.40;37.90;;;;;;2285459;55;21012;-75
2022/05/17 13:52:48;;;;;;;2.05;0.90;;;31.40;37.90;;;;;;2285054;55;21480;-75
2022/05/17 13:55:33;;;;;;;2.08;0.77;;;31.40;37.20;;;;;;2285832;55;20955;-75
2022/05/17 13:58:09;;;;;;;1.95;0.77;;;31.50;37.20;;;;;;2296189;55;21441;-75